sensor_id;sensor_type;location;lat;lon;timestamp;temperature;humidity
55721;DHT22;41626;53.098;6.168;2022-07-17T00:00:00;12.10;99.90
55721;DHT22;41626;53.098;6.168;2022-07-17T00:02:26;12.10;99.90
55721;DHT22;41626;53.098;6.168;2022-07-17T00:04:52;12.10;99.90
55721;DHT22;41626;53.098;6.168;2022-07-17T00:07:18;12.10;99.90
55721;DHT22;41626;53.098;6.168;2022-07-17T00:09:43;11.90;99.90
55721;DHT22;41626;53.098;6.168;2022-07-17T00:12:09;11.90;99.90
55721;DHT22;41626;53.098;6.168;2022-07-17T00:14:35;11.90;99.90
55721;DHT22;41626;53.098;6.168;2022-07-17T00:17:01;11.90;99.90
55721;DHT22;41626;53.098;6.168;2022-07-17T00:19:26;11.90;99.90
55721;DHT22;41626;53.098;6.168;2022-07-17T00:21:52;11.70;99.90
55721;DHT22;41626;53.098;6.168;2022-07-17T00:24:18;11.80;99.90
55721;DHT22;41626;53.098;6.168;2022-07-17T00:26:51;11.70;99.90
55721;DHT22;41626;53.098;6.168;2022-07-17T00:29:17;11.60;99.90
55721;DHT22;41626;53.098;6.168;2022-07-17T00:31:44;11.60;99.90
55721;DHT22;41626;53.098;6.168;2022-07-17T00:34:10;11.60;99.90
55721;DHT22;41626;53.098;6.168;2022-07-17T00:36:36;11.50;99.90
55721;DHT22;41626;53.098;6.168;2022-07-17T00:39:02;11.60;99.90
55721;DHT22;41626;53.098;6.168;2022-07-17T00:41:28;11.50;99.90
55721;DHT22;41626;53.098;6.168;2022-07-17T00:43:54;11.50;99.90
55721;DHT22;41626;53.098;6.168;2022-07-17T00:46:20;11.60;99.90
55721;DHT22;41626;53.098;6.168;2022-07-17T00:48:46;11.60;99.90
55721;DHT22;41626;53.098;6.168;2022-07-17T00:51:12;11.60;99.90
55721;DHT22;41626;53.098;6.168;2022-07-17T00:53:37;11.50;99.90
55721;DHT22;41626;53.098;6.168;2022-07-17T00:56:05;11.40;99.90
55721;DHT22;41626;53.098;6.168;2022-07-17T00:58:34;11.40;99.90
55721;DHT22;41626;53.098;6.168;2022-07-17T01:01:03;11.40;99.90
55721;DHT22;41626;53.098;6.168;2022-07-17T01:03:31;11.40;99.90
55721;DHT22;41626;53.098;6.168;2022-07-17T01:05:57;11.40;99.90
55721;DHT22;41626;53.098;6.168;2022-07-17T01:08:23;11.40;99.90
55721;DHT22;41626;53.098;6.168;2022-07-17T01:10:49;11.30;99.90
55721;DHT22;41626;53.098;6.168;2022-07-17T01:13:15;11.40;99.90
55721;DHT22;41626;53.098;6.168;2022-07-17T01:15:42;11.40;99.90
55721;DHT22;41626;53.098;6.168;2022-07-17T01:18:09;11.30;99.90
55721;DHT22;41626;53.098;6.168;2022-07-17T01:20:37;11.40;99.90
55721;DHT22;41626;53.098;6.168;2022-07-17T01:23:03;11.40;99.90
55721;DHT22;41626;53.098;6.168;2022-07-17T01:25:29;11.30;99.90
55721;DHT22;41626;53.098;6.168;2022-07-17T01:27:55;11.30;99.90
55721;DHT22;41626;53.098;6.168;2022-07-17T01:30:21;11.20;99.90
55721;DHT22;41626;53.098;6.168;2022-07-17T01:32:47;11.10;99.90
55721;DHT22;41626;53.098;6.168;2022-07-17T01:35:14;11.10;99.90
55721;DHT22;41626;53.098;6.168;2022-07-17T01:37:41;11.10;99.90
55721;DHT22;41626;53.098;6.168;2022-07-17T01:40:08;11.10;99.90
55721;DHT22;41626;53.098;6.168;2022-07-17T01:42:35;11.10;99.90
55721;DHT22;41626;53.098;6.168;2022-07-17T01:45:02;11.10;99.90
55721;DHT22;41626;53.098;6.168;2022-07-17T01:47:28;11.10;99.90
55721;DHT22;41626;53.098;6.168;2022-07-17T01:49:56;11.10;99.90
55721;DHT22;41626;53.098;6.168;2022-07-17T01:52:24;11.10;99.90
55721;DHT22;41626;53.098;6.168;2022-07-17T01:54:50;11.10;99.90
55721;DHT22;41626;53.098;6.168;2022-07-17T01:57:16;11.10;99.90
55721;DHT22;41626;53.098;6.168;2022-07-17T01:59:42;11.00;99.90
55721;DHT22;41626;53.098;6.168;2022-07-17T02:02:08;11.00;99.90
55721;DHT22;41626;53.098;6.168;2022-07-17T02:04:36;11.00;99.90
55721;DHT22;41626;53.098;6.168;2022-07-17T02:07:03;11.00;99.90
55721;DHT22;41626;53.098;6.168;2022-07-17T02:09:29;10.90;99.90
55721;DHT22;41626;53.098;6.168;2022-07-17T02:11:55;10.90;99.90
55721;DHT22;41626;53.098;6.168;2022-07-17T02:14:21;10.90;99.90
55721;DHT22;41626;53.098;6.168;2022-07-17T02:16:47;10.80;99.90
55721;DHT22;41626;53.098;6.168;2022-07-17T02:19:12;10.70;99.90
55721;DHT22;41626;53.098;6.168;2022-07-17T02:21:38;10.70;99.90
55721;DHT22;41626;53.098;6.168;2022-07-17T02:24:04;10.80;99.90
55721;DHT22;41626;53.098;6.168;2022-07-17T02:26:30;10.80;99.90
55721;DHT22;41626;53.098;6.168;2022-07-17T02:28:56;10.80;99.90
55721;DHT22;41626;53.098;6.168;2022-07-17T02:31:22;10.80;99.90
55721;DHT22;41626;53.098;6.168;2022-07-17T02:33:47;10.80;99.90
55721;DHT22;41626;53.098;6.168;2022-07-17T02:36:13;10.80;99.90
55721;DHT22;41626;53.098;6.168;2022-07-17T02:38:39;10.80;99.90
55721;DHT22;41626;53.098;6.168;2022-07-17T02:41:04;10.80;99.90
55721;DHT22;41626;53.098;6.168;2022-07-17T02:43:30;10.90;99.90
55721;DHT22;41626;53.098;6.168;2022-07-17T02:45:56;10.80;99.90
55721;DHT22;41626;53.098;6.168;2022-07-17T02:48:21;10.70;99.90
55721;DHT22;41626;53.098;6.168;2022-07-17T02:50:47;10.70;99.90
55721;DHT22;41626;53.098;6.168;2022-07-17T02:53:13;10.70;99.90
55721;DHT22;41626;53.098;6.168;2022-07-17T02:55:38;10.70;99.90
55721;DHT22;41626;53.098;6.168;2022-07-17T02:58:04;10.70;99.90
55721;DHT22;41626;53.098;6.168;2022-07-17T03:00:29;10.50;99.90
55721;DHT22;41626;53.098;6.168;2022-07-17T03:02:56;10.60;99.90
55721;DHT22;41626;53.098;6.168;2022-07-17T03:05:22;10.50;99.90
55721;DHT22;41626;53.098;6.168;2022-07-17T03:07:47;10.60;99.90
55721;DHT22;41626;53.098;6.168;2022-07-17T03:10:13;10.60;99.90
55721;DHT22;41626;53.098;6.168;2022-07-17T03:12:40;10.50;99.90
55721;DHT22;41626;53.098;6.168;2022-07-17T03:15:07;10.60;99.90
55721;DHT22;41626;53.098;6.168;2022-07-17T03:17:33;10.50;99.90
55721;DHT22;41626;53.098;6.168;2022-07-17T03:19:58;10.50;99.90
55721;DHT22;41626;53.098;6.168;2022-07-17T03:22:24;10.50;99.90
55721;DHT22;41626;53.098;6.168;2022-07-17T03:24:50;10.50;99.90
55721;DHT22;41626;53.098;6.168;2022-07-17T03:27:15;10.50;99.90
55721;DHT22;41626;53.098;6.168;2022-07-17T03:29:41;10.50;99.90
55721;DHT22;41626;53.098;6.168;2022-07-17T03:32:07;10.40;99.90
55721;DHT22;41626;53.098;6.168;2022-07-17T03:34:32;10.40;99.90
55721;DHT22;41626;53.098;6.168;2022-07-17T03:36:58;10.40;99.90
55721;DHT22;41626;53.098;6.168;2022-07-17T03:39:24;10.50;99.90
55721;DHT22;41626;53.098;6.168;2022-07-17T03:41:49;10.50;99.90
55721;DHT22;41626;53.098;6.168;2022-07-17T03:44:15;10.40;99.90
55721;DHT22;41626;53.098;6.168;2022-07-17T03:46:41;10.70;99.90
55721;DHT22;41626;53.098;6.168;2022-07-17T03:49:06;10.60;99.90
55721;DHT22;41626;53.098;6.168;2022-07-17T03:51:32;10.80;99.90
55721;DHT22;41626;53.098;6.168;2022-07-17T03:53:58;10.80;99.90
55721;DHT22;41626;53.098;6.168;2022-07-17T03:56:24;10.80;99.90
55721;DHT22;41626;53.098;6.168;2022-07-17T03:58:49;10.80;99.90
55721;DHT22;41626;53.098;6.168;2022-07-17T04:01:15;10.90;99.90
55721;DHT22;41626;53.098;6.168;2022-07-17T04:03:41;10.90;99.90
55721;DHT22;41626;53.098;6.168;2022-07-17T04:06:06;10.80;99.90
55721;DHT22;41626;53.098;6.168;2022-07-17T04:08:32;10.90;99.90
55721;DHT22;41626;53.098;6.168;2022-07-17T04:10:58;11.00;99.90
55721;DHT22;41626;53.098;6.168;2022-07-17T04:13:24;11.00;99.90
55721;DHT22;41626;53.098;6.168;2022-07-17T04:15:49;11.00;99.90
55721;DHT22;41626;53.098;6.168;2022-07-17T04:18:19;11.10;99.90
55721;DHT22;41626;53.098;6.168;2022-07-17T04:20:47;11.10;99.90
55721;DHT22;41626;53.098;6.168;2022-07-17T04:23:13;11.20;99.90
55721;DHT22;41626;53.098;6.168;2022-07-17T04:25:39;11.20;99.90
55721;DHT22;41626;53.098;6.168;2022-07-17T04:28:05;11.30;99.90
55721;DHT22;41626;53.098;6.168;2022-07-17T04:30:31;11.30;99.90
55721;DHT22;41626;53.098;6.168;2022-07-17T04:32:57;11.30;99.90
55721;DHT22;41626;53.098;6.168;2022-07-17T04:35:23;11.30;99.90
55721;DHT22;41626;53.098;6.168;2022-07-17T04:37:48;11.40;99.90
55721;DHT22;41626;53.098;6.168;2022-07-17T04:40:14;11.40;99.90
55721;DHT22;41626;53.098;6.168;2022-07-17T04:42:40;11.50;99.90
55721;DHT22;41626;53.098;6.168;2022-07-17T04:45:06;11.40;99.90
55721;DHT22;41626;53.098;6.168;2022-07-17T04:47:34;11.40;99.90
55721;DHT22;41626;53.098;6.168;2022-07-17T04:49:59;11.50;99.90
55721;DHT22;41626;53.098;6.168;2022-07-17T04:52:25;11.60;99.90
55721;DHT22;41626;53.098;6.168;2022-07-17T04:54:51;11.70;99.90
55721;DHT22;41626;53.098;6.168;2022-07-17T04:57:16;11.70;99.90
55721;DHT22;41626;53.098;6.168;2022-07-17T04:59:42;11.70;99.90
55721;DHT22;41626;53.098;6.168;2022-07-17T05:02:08;11.90;99.90
55721;DHT22;41626;53.098;6.168;2022-07-17T05:04:33;11.90;99.90
55721;DHT22;41626;53.098;6.168;2022-07-17T05:06:59;11.90;99.90
55721;DHT22;41626;53.098;6.168;2022-07-17T05:09:24;12.00;99.90
55721;DHT22;41626;53.098;6.168;2022-07-17T05:11:50;11.90;99.90
55721;DHT22;41626;53.098;6.168;2022-07-17T05:14:17;12.10;99.90
55721;DHT22;41626;53.098;6.168;2022-07-17T05:16:43;12.10;99.90
55721;DHT22;41626;53.098;6.168;2022-07-17T05:19:09;12.00;99.90
55721;DHT22;41626;53.098;6.168;2022-07-17T05:21:35;12.10;99.90
55721;DHT22;41626;53.098;6.168;2022-07-17T05:24:00;12.10;99.90
55721;DHT22;41626;53.098;6.168;2022-07-17T05:26:26;12.10;99.90
55721;DHT22;41626;53.098;6.168;2022-07-17T05:28:52;12.20;99.90
55721;DHT22;41626;53.098;6.168;2022-07-17T05:31:17;12.10;99.90
55721;DHT22;41626;53.098;6.168;2022-07-17T05:33:43;12.20;99.90
55721;DHT22;41626;53.098;6.168;2022-07-17T05:36:09;12.20;99.90
55721;DHT22;41626;53.098;6.168;2022-07-17T05:38:34;12.30;99.90
55721;DHT22;41626;53.098;6.168;2022-07-17T05:41:01;12.30;99.90
55721;DHT22;41626;53.098;6.168;2022-07-17T05:43:26;12.40;99.90
55721;DHT22;41626;53.098;6.168;2022-07-17T05:45:56;12.40;99.90
55721;DHT22;41626;53.098;6.168;2022-07-17T05:48:22;12.50;99.90
55721;DHT22;41626;53.098;6.168;2022-07-17T05:50:48;12.70;99.90
55721;DHT22;41626;53.098;6.168;2022-07-17T05:53:14;12.80;99.90
55721;DHT22;41626;53.098;6.168;2022-07-17T05:55:40;12.80;99.90
55721;DHT22;41626;53.098;6.168;2022-07-17T05:58:06;12.90;99.90
55721;DHT22;41626;53.098;6.168;2022-07-17T06:00:32;13.00;99.90
55721;DHT22;41626;53.098;6.168;2022-07-17T06:02:58;13.00;99.90
55721;DHT22;41626;53.098;6.168;2022-07-17T06:05:24;13.10;99.90
55721;DHT22;41626;53.098;6.168;2022-07-17T06:07:51;13.10;99.90
55721;DHT22;41626;53.098;6.168;2022-07-17T06:10:18;13.20;99.90
55721;DHT22;41626;53.098;6.168;2022-07-17T06:12:44;13.20;99.90
55721;DHT22;41626;53.098;6.168;2022-07-17T06:15:10;13.30;99.90
55721;DHT22;41626;53.098;6.168;2022-07-17T06:17:36;13.40;99.90
55721;DHT22;41626;53.098;6.168;2022-07-17T06:20:03;13.40;99.90
55721;DHT22;41626;53.098;6.168;2022-07-17T06:22:29;13.60;99.90
55721;DHT22;41626;53.098;6.168;2022-07-17T06:24:55;13.60;99.90
55721;DHT22;41626;53.098;6.168;2022-07-17T06:27:21;13.80;99.90
55721;DHT22;41626;53.098;6.168;2022-07-17T06:29:46;14.00;99.90
55721;DHT22;41626;53.098;6.168;2022-07-17T06:32:13;14.10;99.90
55721;DHT22;41626;53.098;6.168;2022-07-17T06:34:39;14.20;99.90
55721;DHT22;41626;53.098;6.168;2022-07-17T06:37:04;14.40;99.90
55721;DHT22;41626;53.098;6.168;2022-07-17T06:39:30;14.40;99.90
55721;DHT22;41626;53.098;6.168;2022-07-17T06:41:56;14.50;99.90
55721;DHT22;41626;53.098;6.168;2022-07-17T06:44:21;14.60;99.90
55721;DHT22;41626;53.098;6.168;2022-07-17T06:46:47;14.70;99.90
55721;DHT22;41626;53.098;6.168;2022-07-17T06:49:13;15.10;99.90
55721;DHT22;41626;53.098;6.168;2022-07-17T06:51:38;15.10;99.90
55721;DHT22;41626;53.098;6.168;2022-07-17T06:54:05;15.20;99.90
55721;DHT22;41626;53.098;6.168;2022-07-17T06:56:31;15.30;99.90
55721;DHT22;41626;53.098;6.168;2022-07-17T06:58:57;15.40;99.90
55721;DHT22;41626;53.098;6.168;2022-07-17T07:01:22;15.40;99.90
55721;DHT22;41626;53.098;6.168;2022-07-17T07:03:48;15.50;99.90
55721;DHT22;41626;53.098;6.168;2022-07-17T07:06:14;15.60;99.90
55721;DHT22;41626;53.098;6.168;2022-07-17T07:08:39;15.60;99.90
55721;DHT22;41626;53.098;6.168;2022-07-17T07:11:05;15.70;99.90
55721;DHT22;41626;53.098;6.168;2022-07-17T07:13:31;15.70;99.90
55721;DHT22;41626;53.098;6.168;2022-07-17T07:15:57;15.70;99.90
55721;DHT22;41626;53.098;6.168;2022-07-17T07:18:23;15.70;99.90
55721;DHT22;41626;53.098;6.168;2022-07-17T07:20:49;15.80;99.90
55721;DHT22;41626;53.098;6.168;2022-07-17T07:23:14;15.90;99.90
55721;DHT22;41626;53.098;6.168;2022-07-17T07:25:40;15.90;99.90
55721;DHT22;41626;53.098;6.168;2022-07-17T07:28:06;15.90;99.90
55721;DHT22;41626;53.098;6.168;2022-07-17T07:30:32;16.00;99.90
55721;DHT22;41626;53.098;6.168;2022-07-17T07:32:58;16.10;99.90
55721;DHT22;41626;53.098;6.168;2022-07-17T07:35:23;16.00;99.90
55721;DHT22;41626;53.098;6.168;2022-07-17T07:37:49;16.10;99.90
55721;DHT22;41626;53.098;6.168;2022-07-17T07:40:15;16.10;99.90
55721;DHT22;41626;53.098;6.168;2022-07-17T07:42:41;16.50;99.90
55721;DHT22;41626;53.098;6.168;2022-07-17T07:45:07;16.70;99.90
55721;DHT22;41626;53.098;6.168;2022-07-17T07:47:43;17.20;99.90
55721;DHT22;41626;53.098;6.168;2022-07-17T07:50:09;18.30;99.90
55721;DHT22;41626;53.098;6.168;2022-07-17T07:52:37;18.20;99.90
55721;DHT22;41626;53.098;6.168;2022-07-17T07:55:03;18.00;99.90
55721;DHT22;41626;53.098;6.168;2022-07-17T07:57:29;18.10;99.90
55721;DHT22;41626;53.098;6.168;2022-07-17T07:59:55;18.30;99.90
55721;DHT22;41626;53.098;6.168;2022-07-17T08:02:21;18.20;99.90
55721;DHT22;41626;53.098;6.168;2022-07-17T08:04:46;18.10;99.90
55721;DHT22;41626;53.098;6.168;2022-07-17T08:07:12;18.50;99.90
55721;DHT22;41626;53.098;6.168;2022-07-17T08:09:37;18.60;99.90
55721;DHT22;41626;53.098;6.168;2022-07-17T08:12:03;18.70;99.90
55721;DHT22;41626;53.098;6.168;2022-07-17T08:14:29;18.80;99.90
55721;DHT22;41626;53.098;6.168;2022-07-17T08:16:54;19.00;99.90
55721;DHT22;41626;53.098;6.168;2022-07-17T08:19:20;19.10;99.90
55721;DHT22;41626;53.098;6.168;2022-07-17T08:21:46;19.00;99.90
55721;DHT22;41626;53.098;6.168;2022-07-17T08:24:11;19.10;99.90
55721;DHT22;41626;53.098;6.168;2022-07-17T08:26:37;18.90;99.90
55721;DHT22;41626;53.098;6.168;2022-07-17T08:29:03;18.50;99.90
55721;DHT22;41626;53.098;6.168;2022-07-17T08:31:29;19.00;99.90
55721;DHT22;41626;53.098;6.168;2022-07-17T08:33:54;19.10;99.90
55721;DHT22;41626;53.098;6.168;2022-07-17T08:36:20;19.10;99.90
55721;DHT22;41626;53.098;6.168;2022-07-17T08:38:46;19.30;99.90
55721;DHT22;41626;53.098;6.168;2022-07-17T08:41:14;19.20;99.90
55721;DHT22;41626;53.098;6.168;2022-07-17T08:43:42;19.40;99.90
55721;DHT22;41626;53.098;6.168;2022-07-17T08:46:11;19.40;99.90
55721;DHT22;41626;53.098;6.168;2022-07-17T08:48:40;19.70;99.90
55721;DHT22;41626;53.098;6.168;2022-07-17T08:51:08;19.60;99.90
55721;DHT22;41626;53.098;6.168;2022-07-17T08:53:33;19.70;99.90
55721;DHT22;41626;53.098;6.168;2022-07-17T08:55:59;19.80;99.90
55721;DHT22;41626;53.098;6.168;2022-07-17T08:58:25;19.80;99.90
55721;DHT22;41626;53.098;6.168;2022-07-17T09:00:51;19.90;99.90
55721;DHT22;41626;53.098;6.168;2022-07-17T09:03:17;20.00;99.90
55721;DHT22;41626;53.098;6.168;2022-07-17T09:05:43;20.00;99.90
55721;DHT22;41626;53.098;6.168;2022-07-17T09:08:16;19.90;99.90
55721;DHT22;41626;53.098;6.168;2022-07-17T09:10:44;19.60;99.90
55721;DHT22;41626;53.098;6.168;2022-07-17T09:13:19;20.10;99.90
55721;DHT22;41626;53.098;6.168;2022-07-17T09:15:48;20.20;99.90
55721;DHT22;41626;53.098;6.168;2022-07-17T09:18:14;20.40;99.90
55721;DHT22;41626;53.098;6.168;2022-07-17T09:20:54;20.40;99.90
55721;DHT22;41626;53.098;6.168;2022-07-17T09:23:22;20.50;99.90
55721;DHT22;41626;53.098;6.168;2022-07-17T09:25:50;20.50;99.90
55721;DHT22;41626;53.098;6.168;2022-07-17T09:28:16;20.70;99.90
55721;DHT22;41626;53.098;6.168;2022-07-17T09:30:48;20.70;99.90
55721;DHT22;41626;53.098;6.168;2022-07-17T09:33:16;20.70;99.90
55721;DHT22;41626;53.098;6.168;2022-07-17T09:35:57;20.70;99.90
55721;DHT22;41626;53.098;6.168;2022-07-17T09:38:32;20.60;99.90
55721;DHT22;41626;53.098;6.168;2022-07-17T09:41:13;20.80;99.90
55721;DHT22;41626;53.098;6.168;2022-07-17T09:46:08;20.70;99.90
55721;DHT22;41626;53.098;6.168;2022-07-17T09:48:35;20.50;99.90
55721;DHT22;41626;53.098;6.168;2022-07-17T09:51:05;19.90;99.90
55721;DHT22;41626;53.098;6.168;2022-07-17T09:53:32;20.20;99.90
55721;DHT22;41626;53.098;6.168;2022-07-17T09:56:02;20.50;99.90
55721;DHT22;41626;53.098;6.168;2022-07-17T09:58:29;20.70;99.90
55721;DHT22;41626;53.098;6.168;2022-07-17T10:00:57;20.80;99.90
55721;DHT22;41626;53.098;6.168;2022-07-17T10:03:23;20.90;99.90
55721;DHT22;41626;53.098;6.168;2022-07-17T10:05:48;21.10;99.90
55721;DHT22;41626;53.098;6.168;2022-07-17T10:08:15;21.00;99.90
55721;DHT22;41626;53.098;6.168;2022-07-17T10:10:41;20.40;99.90
55721;DHT22;41626;53.098;6.168;2022-07-17T10:13:06;20.60;99.90
55721;DHT22;41626;53.098;6.168;2022-07-17T10:15:33;20.90;99.90
55721;DHT22;41626;53.098;6.168;2022-07-17T10:18:05;21.00;99.90
55721;DHT22;41626;53.098;6.168;2022-07-17T10:20:31;21.10;99.90
55721;DHT22;41626;53.098;6.168;2022-07-17T10:22:57;21.10;99.90
55721;DHT22;41626;53.098;6.168;2022-07-17T10:25:23;21.00;99.90
55721;DHT22;41626;53.098;6.168;2022-07-17T10:27:53;21.20;99.90
55721;DHT22;41626;53.098;6.168;2022-07-17T10:30:30;21.20;99.90
55721;DHT22;41626;53.098;6.168;2022-07-17T10:33:05;20.90;99.90
55721;DHT22;41626;53.098;6.168;2022-07-17T10:35:43;21.30;99.90
55721;DHT22;41626;53.098;6.168;2022-07-17T10:38:11;21.40;99.90
55721;DHT22;41626;53.098;6.168;2022-07-17T10:40:40;21.60;99.90
55721;DHT22;41626;53.098;6.168;2022-07-17T10:43:07;21.30;99.90
55721;DHT22;41626;53.098;6.168;2022-07-17T10:45:35;21.20;99.90
55721;DHT22;41626;53.098;6.168;2022-07-17T10:50:41;21.40;99.90
55721;DHT22;41626;53.098;6.168;2022-07-17T10:55:43;21.90;99.90
55721;DHT22;41626;53.098;6.168;2022-07-17T10:58:28;22.00;99.90
55721;DHT22;41626;53.098;6.168;2022-07-17T11:03:25;22.10;99.90
55721;DHT22;41626;53.098;6.168;2022-07-17T11:05:51;22.00;99.90
55721;DHT22;41626;53.098;6.168;2022-07-17T11:08:17;22.10;99.90
55721;DHT22;41626;53.098;6.168;2022-07-17T11:10:42;22.20;99.90
55721;DHT22;41626;53.098;6.168;2022-07-17T11:13:13;21.40;99.90
55721;DHT22;41626;53.098;6.168;2022-07-17T11:15:44;21.50;99.90
55721;DHT22;41626;53.098;6.168;2022-07-17T11:18:15;21.90;99.90
55721;DHT22;41626;53.098;6.168;2022-07-17T11:20:52;22.00;99.90
55721;DHT22;41626;53.098;6.168;2022-07-17T11:23:19;22.10;99.90
55721;DHT22;41626;53.098;6.168;2022-07-17T11:31:00;22.30;99.90
55721;DHT22;41626;53.098;6.168;2022-07-17T11:33:27;22.10;99.90
55721;DHT22;41626;53.098;6.168;2022-07-17T11:35:52;22.10;99.90
55721;DHT22;41626;53.098;6.168;2022-07-17T11:38:28;22.30;99.90
55721;DHT22;41626;53.098;6.168;2022-07-17T11:40:54;22.60;99.90
55721;DHT22;41626;53.098;6.168;2022-07-17T11:43:20;22.60;99.90
55721;DHT22;41626;53.098;6.168;2022-07-17T11:45:46;22.70;99.90
55721;DHT22;41626;53.098;6.168;2022-07-17T11:48:12;22.60;99.90
55721;DHT22;41626;53.098;6.168;2022-07-17T11:50:38;22.80;99.90
55721;DHT22;41626;53.098;6.168;2022-07-17T11:53:05;22.60;99.90
55721;DHT22;41626;53.098;6.168;2022-07-17T11:55:38;22.80;99.90
55721;DHT22;41626;53.098;6.168;2022-07-17T11:58:04;22.50;99.90
55721;DHT22;41626;53.098;6.168;2022-07-17T12:00:31;22.90;99.90
55721;DHT22;41626;53.098;6.168;2022-07-17T12:03:03;23.10;99.90
55721;DHT22;41626;53.098;6.168;2022-07-17T12:05:31;23.00;99.90
55721;DHT22;41626;53.098;6.168;2022-07-17T12:07:57;23.00;99.90
55721;DHT22;41626;53.098;6.168;2022-07-17T12:10:25;22.90;99.90
55721;DHT22;41626;53.098;6.168;2022-07-17T12:12:59;22.90;99.90
55721;DHT22;41626;53.098;6.168;2022-07-17T12:15:35;23.00;99.90
55721;DHT22;41626;53.098;6.168;2022-07-17T12:18:02;23.40;99.90
55721;DHT22;41626;53.098;6.168;2022-07-17T12:20:44;23.40;99.90
55721;DHT22;41626;53.098;6.168;2022-07-17T12:26:23;23.20;99.90
55721;DHT22;41626;53.098;6.168;2022-07-17T12:28:49;23.20;99.90
55721;DHT22;41626;53.098;6.168;2022-07-17T12:31:15;23.20;99.90
55721;DHT22;41626;53.098;6.168;2022-07-17T12:33:41;23.40;99.90
55721;DHT22;41626;53.098;6.168;2022-07-17T12:36:07;23.50;99.90
55721;DHT22;41626;53.098;6.168;2022-07-17T12:38:33;23.60;99.90
55721;DHT22;41626;53.098;6.168;2022-07-17T12:40:58;23.50;99.90
55721;DHT22;41626;53.098;6.168;2022-07-17T12:43:25;23.60;99.90
55721;DHT22;41626;53.098;6.168;2022-07-17T12:45:51;23.60;99.90
55721;DHT22;41626;53.098;6.168;2022-07-17T12:48:17;23.50;99.90
55721;DHT22;41626;53.098;6.168;2022-07-17T12:50:43;23.70;99.90
55721;DHT22;41626;53.098;6.168;2022-07-17T12:53:08;23.80;99.90
55721;DHT22;41626;53.098;6.168;2022-07-17T12:55:34;23.70;99.90
55721;DHT22;41626;53.098;6.168;2022-07-17T12:58:02;23.40;99.90
55721;DHT22;41626;53.098;6.168;2022-07-17T13:00:28;23.80;99.90
55721;DHT22;41626;53.098;6.168;2022-07-17T13:02:54;23.90;99.90
55721;DHT22;41626;53.098;6.168;2022-07-17T13:05:19;24.10;99.90
55721;DHT22;41626;53.098;6.168;2022-07-17T13:07:45;24.30;99.90
55721;DHT22;41626;53.098;6.168;2022-07-17T13:10:11;23.80;99.90
55721;DHT22;41626;53.098;6.168;2022-07-17T13:12:36;24.00;99.90
55721;DHT22;41626;53.098;6.168;2022-07-17T13:15:03;23.90;99.90
55721;DHT22;41626;53.098;6.168;2022-07-17T13:17:29;23.90;99.90
55721;DHT22;41626;53.098;6.168;2022-07-17T13:19:55;24.00;99.90
55721;DHT22;41626;53.098;6.168;2022-07-17T13:22:20;24.00;99.90
55721;DHT22;41626;53.098;6.168;2022-07-17T13:24:46;23.80;99.90
55721;DHT22;41626;53.098;6.168;2022-07-17T13:27:12;24.10;99.90
55721;DHT22;41626;53.098;6.168;2022-07-17T13:29:37;24.10;99.90
55721;DHT22;41626;53.098;6.168;2022-07-17T13:32:03;24.10;99.90
55721;DHT22;41626;53.098;6.168;2022-07-17T13:34:29;24.00;99.90
55721;DHT22;41626;53.098;6.168;2022-07-17T13:36:56;24.30;99.90
55721;DHT22;41626;53.098;6.168;2022-07-17T13:39:22;24.40;99.90
55721;DHT22;41626;53.098;6.168;2022-07-17T13:41:48;24.60;99.90
55721;DHT22;41626;53.098;6.168;2022-07-17T13:44:14;24.50;99.90
55721;DHT22;41626;53.098;6.168;2022-07-17T13:46:39;24.30;99.90
55721;DHT22;41626;53.098;6.168;2022-07-17T13:49:05;24.30;99.90
55721;DHT22;41626;53.098;6.168;2022-07-17T13:51:32;24.40;99.90
55721;DHT22;41626;53.098;6.168;2022-07-17T13:53:57;24.50;99.90
55721;DHT22;41626;53.098;6.168;2022-07-17T13:56:23;24.50;99.90
55721;DHT22;41626;53.098;6.168;2022-07-17T13:58:50;24.70;99.90
55721;DHT22;41626;53.098;6.168;2022-07-17T14:01:15;24.50;99.90
55721;DHT22;41626;53.098;6.168;2022-07-17T14:03:41;24.40;99.90
55721;DHT22;41626;53.098;6.168;2022-07-17T14:06:07;24.30;99.90
55721;DHT22;41626;53.098;6.168;2022-07-17T14:08:34;24.20;99.90
55721;DHT22;41626;53.098;6.168;2022-07-17T14:11:00;24.20;99.90
55721;DHT22;41626;53.098;6.168;2022-07-17T14:13:26;24.30;99.90
55721;DHT22;41626;53.098;6.168;2022-07-17T14:15:52;24.10;99.90
55721;DHT22;41626;53.098;6.168;2022-07-17T14:18:17;24.20;99.90
55721;DHT22;41626;53.098;6.168;2022-07-17T14:20:43;24.10;99.90
55721;DHT22;41626;53.098;6.168;2022-07-17T14:23:10;24.20;99.90
55721;DHT22;41626;53.098;6.168;2022-07-17T14:25:35;24.40;99.90
55721;DHT22;41626;53.098;6.168;2022-07-17T14:28:01;24.50;99.90
55721;DHT22;41626;53.098;6.168;2022-07-17T14:30:27;24.30;99.90
55721;DHT22;41626;53.098;6.168;2022-07-17T14:32:52;24.20;99.90
55721;DHT22;41626;53.098;6.168;2022-07-17T14:35:19;24.20;99.90
55721;DHT22;41626;53.098;6.168;2022-07-17T14:37:44;24.40;99.90
55721;DHT22;41626;53.098;6.168;2022-07-17T14:40:11;24.40;99.90
55721;DHT22;41626;53.098;6.168;2022-07-17T14:42:37;24.60;99.90
55721;DHT22;41626;53.098;6.168;2022-07-17T14:45:03;24.40;99.90
55721;DHT22;41626;53.098;6.168;2022-07-17T14:47:29;24.20;99.90
55721;DHT22;41626;53.098;6.168;2022-07-17T14:49:55;24.20;99.90
55721;DHT22;41626;53.098;6.168;2022-07-17T14:52:20;24.20;99.90
55721;DHT22;41626;53.098;6.168;2022-07-17T14:54:46;24.20;99.90
55721;DHT22;41626;53.098;6.168;2022-07-17T14:57:12;24.20;99.90
55721;DHT22;41626;53.098;6.168;2022-07-17T14:59:38;24.30;99.90
55721;DHT22;41626;53.098;6.168;2022-07-17T15:02:03;24.40;99.90
55721;DHT22;41626;53.098;6.168;2022-07-17T15:04:29;24.40;99.90
55721;DHT22;41626;53.098;6.168;2022-07-17T15:06:55;24.50;99.90
55721;DHT22;41626;53.098;6.168;2022-07-17T15:09:21;24.50;99.90
55721;DHT22;41626;53.098;6.168;2022-07-17T15:11:46;24.50;99.90
55721;DHT22;41626;53.098;6.168;2022-07-17T15:14:12;24.50;99.90
55721;DHT22;41626;53.098;6.168;2022-07-17T15:16:38;24.60;99.90
55721;DHT22;41626;53.098;6.168;2022-07-17T15:19:04;24.50;99.90
55721;DHT22;41626;53.098;6.168;2022-07-17T15:21:29;24.60;99.90
55721;DHT22;41626;53.098;6.168;2022-07-17T15:23:55;24.50;99.90
55721;DHT22;41626;53.098;6.168;2022-07-17T15:26:20;24.80;99.90
55721;DHT22;41626;53.098;6.168;2022-07-17T15:28:46;24.70;99.90
55721;DHT22;41626;53.098;6.168;2022-07-17T15:31:12;24.60;99.90
55721;DHT22;41626;53.098;6.168;2022-07-17T15:33:37;24.40;99.90
55721;DHT22;41626;53.098;6.168;2022-07-17T15:36:08;24.40;99.90
55721;DHT22;41626;53.098;6.168;2022-07-17T15:38:35;24.40;99.90
55721;DHT22;41626;53.098;6.168;2022-07-17T15:41:00;24.50;99.90
55721;DHT22;41626;53.098;6.168;2022-07-17T15:43:26;24.50;99.90